createdAt,value
2018-08-19T00:46:08.395Z,95723.33
2018-08-19T00:51:11.726Z,95727.22
2018-08-19T00:56:22.394Z,95728.58
2018-08-19T02:33:28.193Z,95727.80
2018-08-19T02:38:31.536Z,95726.50
2018-08-19T02:43:35.647Z,95721.56
2018-08-19T03:46:10.478Z,95715.28
2018-08-19T03:51:13.813Z,95719.34
2018-08-19T03:56:17.143Z,95716.08
2018-08-19T05:04:35.824Z,95737.39
2018-08-19T05:09:39.162Z,95737.64
2018-08-19T05:14:52.140Z,95746.92
2018-08-19T05:19:55.487Z,95751.14
2018-08-19T05:24:58.823Z,95750.52
2018-08-19T05:30:02.150Z,95753.22
2018-08-19T05:35:06.250Z,95757.13
2018-08-19T05:40:09.647Z,95762.78
2018-08-19T05:45:12.988Z,95761.05
2018-08-19T05:50:16.314Z,95766.70
2018-08-19T05:55:24.224Z,95770.13
2018-08-19T06:00:27.539Z,95773.64
2018-08-19T06:05:31.650Z,95778.63
2018-08-19T06:10:34.978Z,95777.71
2018-08-19T06:15:38.302Z,95783.30
2018-08-19T06:20:42.411Z,95778.71
2018-08-19T06:25:45.756Z,95777.02
2018-08-19T06:30:49.090Z,95780.67
2018-08-19T06:35:52.431Z,95786.56
2018-08-19T06:40:55.766Z,95786.30
2018-08-19T06:46:06.305Z,95779.13
2018-08-19T06:51:09.660Z,95780.25
2018-08-19T06:56:12.979Z,95775.86
2018-08-19T07:01:16.321Z,95781.89
2018-08-19T07:06:20.423Z,95779.80
2018-08-19T07:11:23.753Z,95781.72
2018-08-19T07:16:27.880Z,95771.08
2018-08-19T07:21:31.983Z,95776.33
2018-08-19T07:26:46.097Z,95778.22
2018-08-19T07:31:49.818Z,95775.50
2018-08-19T07:36:53.632Z,95773.70
2018-08-19T07:41:58.185Z,95773.57
2018-08-19T07:47:02.110Z,95776.35
2018-08-19T07:52:05.721Z,95776.11
2018-08-19T07:57:09.264Z,95772.59
2018-08-19T08:02:14.180Z,95775.03
2018-08-19T08:07:17.743Z,95774.31
2018-08-19T08:12:21.423Z,95780.69
2018-08-19T08:17:26.516Z,95780.89
2018-08-19T08:22:30.111Z,95778.55
2018-08-19T08:27:33.838Z,95781.55
2018-08-19T08:32:37.408Z,95781.25
2018-08-19T08:37:41.103Z,95774.92
2018-08-19T08:42:44.795Z,95773.41
2018-08-19T08:47:48.561Z,95768.95
2018-08-19T08:52:52.245Z,95759.36
2018-08-19T08:57:55.840Z,95763.64
2018-08-19T09:02:59.477Z,95758.23
2018-08-19T09:08:03.113Z,95758.39
2018-08-19T09:13:06.686Z,95757.85
2018-08-19T09:18:10.333Z,95747.14
2018-08-19T09:23:14.054Z,95744.84
2018-08-19T09:28:17.628Z,95745.39
2018-08-19T09:33:21.196Z,95740.11
2018-08-19T09:38:24.531Z,95739.56
2018-08-19T09:43:27.875Z,95738.63
2018-08-19T09:48:31.343Z,95736.97
2018-08-19T09:53:34.672Z,95728.94
2018-08-19T09:58:38.003Z,95726.34
2018-08-19T10:03:41.344Z,95720.05
2018-08-19T10:08:45.433Z,95718.02
2018-08-19T10:13:48.767Z,95715.11
2018-08-19T10:18:52.350Z,95707.34
2018-08-19T10:23:55.689Z,95704.84
2018-08-19T10:28:59.018Z,95705.18
2018-08-19T10:38:40.553Z,95693.86
2018-08-19T10:43:43.998Z,95694.19
2018-08-19T10:48:47.651Z,95684.35
2018-08-19T10:53:50.989Z,95683.91
2018-08-19T10:58:54.322Z,95679.64
2018-08-19T11:03:58.423Z,95682.16
2018-08-19T11:09:01.768Z,95674.78
2018-08-19T11:14:05.861Z,95670.20
2018-08-19T11:19:09.187Z,95670.02
2018-08-19T11:24:12.512Z,95660.11
2018-08-19T11:29:15.838Z,95663.11
2018-08-19T11:34:19.163Z,95659.22
2018-08-19T11:39:22.514Z,95648.64
2018-08-19T11:44:25.831Z,95652.66
2018-08-19T11:49:29.171Z,95646.53
2018-08-19T11:54:33.275Z,95639.61
2018-08-19T11:59:36.607Z,95644.86
2018-08-19T12:04:41.392Z,95635.64
2018-08-19T12:09:45.139Z,95632.30
2018-08-19T12:14:49.321Z,95624.17
2018-08-19T12:19:53.610Z,95619.88
2018-08-19T12:24:57.211Z,95612.89
2018-08-19T12:30:00.743Z,95603.91
2018-08-19T12:35:05.090Z,95605.13
2018-08-19T12:40:08.445Z,95604.83
2018-08-19T12:45:12.535Z,95598.34
2018-08-19T12:50:15.904Z,95587.33
2018-08-19T12:55:19.228Z,95587.40
2018-08-19T13:00:22.568Z,95567.64
2018-08-19T13:05:25.890Z,95573.97
2018-08-19T13:10:29.222Z,95565.44
2018-08-19T13:15:32.568Z,95569.80
2018-08-19T13:20:35.920Z,95561.20
2018-08-19T13:25:39.253Z,95552.20
2018-08-19T13:30:42.652Z,95553.98
2018-08-19T13:35:46.234Z,95546.08
2018-08-19T13:40:49.824Z,95544.28
2018-08-19T13:45:55.167Z,95544.81
2018-08-19T13:50:58.582Z,95530.75
2018-08-19T13:56:02.053Z,95527.89
2018-08-19T14:01:05.501Z,95533.16
2018-08-19T14:06:09.073Z,95512.94
2018-08-19T14:11:13.515Z,95518.04
2018-08-19T14:16:30.211Z,95513.07
2018-08-19T14:21:34.720Z,95515.95
2018-08-19T14:26:38.185Z,95506.42
2018-08-19T14:31:42.393Z,95507.36
2018-08-19T14:36:45.869Z,95498.31
2018-08-19T14:41:49.270Z,95501.36
2018-08-19T14:46:52.641Z,95497.63
2018-08-19T14:51:56.860Z,95492.62
2018-08-19T14:57:00.503Z,95488.44
2018-08-19T15:02:04.605Z,95490.43
2018-08-19T15:07:07.934Z,95484.14
2018-08-19T15:12:11.293Z,95478.11
2018-08-19T15:17:14.641Z,95471.77
2018-08-19T15:45:04.071Z,95455.12
2018-08-19T15:50:11.386Z,95444.05
2018-08-19T15:55:14.720Z,95446.89
2018-08-19T16:00:18.398Z,95448.42
2018-08-19T16:05:21.747Z,95447.08
2018-08-19T16:10:25.086Z,95453.80
2018-08-19T16:15:28.421Z,95451.41
2018-08-19T16:20:31.767Z,95453.20
2018-08-19T16:26:06.073Z,95451.13
2018-08-19T16:31:09.476Z,95448.64
2018-08-19T16:36:12.851Z,95443.28
2018-08-19T16:41:17.526Z,95440.02
2018-08-19T16:46:25.276Z,95451.69
2018-08-19T16:51:28.614Z,95444.77
2018-08-19T16:56:31.990Z,95445.30
2018-08-19T17:01:35.379Z,95441.44
2018-08-19T17:06:41.402Z,95442.87
2018-08-19T17:11:44.738Z,95442.59
2018-08-19T17:16:48.073Z,95438.58
2018-08-19T17:21:52.168Z,95450.55
2018-08-19T17:26:55.522Z,95437.81
2018-08-19T17:31:59.602Z,95435.61
2018-08-19T17:37:02.944Z,95436.91
2018-08-19T17:42:06.347Z,95438.91
2018-08-19T17:47:10.481Z,95439.95
2018-08-19T17:52:13.863Z,95447.50
2018-08-19T17:57:17.208Z,95449.98
2018-08-19T18:02:20.523Z,95454.38
2018-08-19T18:07:23.863Z,95454.23
2018-08-19T18:12:27.194Z,95457.80
2018-08-19T18:17:30.547Z,95455.01
2018-08-19T18:22:33.882Z,95459.84
2018-08-19T18:27:37.220Z,95463.08
2018-08-19T18:32:40.555Z,95472.04
2018-08-19T18:37:43.890Z,95473.77
2018-08-19T18:42:47.234Z,95471.17
2018-08-19T18:47:51.336Z,95469.46
2018-08-19T18:52:54.666Z,95472.09
2018-08-19T18:57:57.995Z,95478.56
2018-08-19T19:03:02.088Z,95485.18
2018-08-19T19:08:05.446Z,95483.61
2018-08-19T19:13:08.762Z,95477.40
2018-08-19T19:18:12.874Z,95493.59
2018-08-19T19:23:16.273Z,95493.08
2018-08-19T19:28:19.603Z,95502.34
2018-08-19T19:33:22.931Z,95498.13
2018-08-19T19:38:26.266Z,95497.81
2018-08-19T19:43:29.590Z,95498.42
2018-08-19T19:48:32.925Z,95505.08
2018-08-19T19:53:36.298Z,95502.62
2018-08-19T19:58:39.638Z,95501.14
2018-08-19T20:03:42.957Z,95510.48
2018-08-19T20:08:46.298Z,95513.06
2018-08-19T20:13:49.629Z,95512.09
2018-08-19T20:18:52.964Z,95514.75
2018-08-19T20:23:56.316Z,95516.69
2018-08-19T20:28:59.665Z,95512.05
2018-08-19T20:34:03.833Z,95513.10
2018-08-19T20:39:07.163Z,95505.19
2018-08-19T20:44:10.504Z,95515.91
2018-08-19T20:49:13.874Z,95524.05
2018-08-19T20:54:17.198Z,95525.09
2018-08-19T20:59:20.539Z,95524.47
2018-08-19T21:04:24.026Z,95530.91
2018-08-19T21:09:27.350Z,95524.89
2018-08-19T21:14:30.759Z,95538.27
